Time;durP1;ratioP1;P1;durP2;ratioP2;P2;SDS_P1;SDS_P2;PMS_P1;PMS_P2;Temp;Humidity;BMP_temperature;BMP_pressure;BME280_temperature;BME280_humidity;BME280_pressure;Samples;Min_cycle;Max_cycle;Signal;HPM_P1;HPM_P2
2021/10/25 00:00:43;;;;;;;22.20;9.73;;;7.80;99.90;;;;;;5038605;28;20072;-61
2021/10/25 00:03:09;;;;;;;18.63;9.55;;;7.70;99.90;;;;;;5041710;28;20038;-61
2021/10/25 00:05:35;;;;;;;19.08;10.65;;;7.80;99.90;;;;;;5037705;28;20075;-61
2021/10/25 00:08:00;;;;;;;25.13;9.45;;;7.80;99.90;;;;;;5040568;28;20052;-61
2021/10/25 00:10:26;;;;;;;17.13;9.73;;;7.80;99.90;;;;;;5038213;28;20056;-61
2021/10/25 00:12:52;;;;;;;17.58;9.80;;;7.80;99.90;;;;;;5040387;28;20025;-61
2021/10/25 00:15:18;;;;;;;23.20;9.50;;;7.80;99.90;;;;;;5038548;28;20075;-61
2021/10/25 00:17:44;;;;;;;22.52;10.45;;;7.80;99.90;;;;;;5038329;28;20350;-61
2021/10/25 00:20:13;;;;;;;17.92;9.70;;;7.70;99.90;;;;;;5037565;28;20032;-61
2021/10/25 00:22:40;;;;;;;16.55;9.80;;;7.80;99.90;;;;;;5040030;28;20084;-61
2021/10/25 00:25:06;;;;;;;19.88;9.40;;;7.80;99.90;;;;;;5040420;28;20216;-61
2021/10/25 00:27:33;;;;;;;17.17;10.57;;;7.80;99.90;;;;;;5036424;28;20037;-61
2021/10/25 00:29:59;;;;;;;22.08;9.80;;;7.80;99.90;;;;;;5038715;28;20086;-61
2021/10/25 00:32:25;;;;;;;21.83;9.50;;;7.80;99.90;;;;;;5036632;28;20114;-61
2021/10/25 00:34:50;;;;;;;14.88;9.63;;;7.70;99.90;;;;;;5040485;28;20323;-61
2021/10/25 00:37:16;;;;;;;19.05;10.77;;;7.70;99.90;;;;;;5034779;28;20083;-61
2021/10/25 00:39:42;;;;;;;17.90;9.30;;;7.70;99.90;;;;;;5038929;28;20085;-61
2021/10/25 00:42:08;;;;;;;16.02;9.15;;;7.60;99.90;;;;;;5039917;28;20270;-61
2021/10/25 00:44:34;;;;;;;24.88;10.07;;;7.50;99.90;;;;;;5038910;28;20044;-61
2021/10/25 00:47:00;;;;;;;18.33;10.02;;;7.40;99.90;;;;;;5039171;28;20235;-61
2021/10/25 00:49:26;;;;;;;19.65;9.68;;;7.40;99.90;;;;;;5037977;28;20060;-61
2021/10/25 00:51:53;;;;;;;22.23;10.60;;;7.30;99.90;;;;;;5037066;28;20076;-61
2021/10/25 00:54:20;;;;;;;18.48;9.75;;;7.30;99.90;;;;;;5036089;28;20551;-61
2021/10/25 00:56:47;;;;;;;17.35;9.52;;;7.20;99.90;;;;;;5036043;28;20319;-63
2021/10/25 00:59:14;;;;;;;22.13;11.00;;;7.20;99.90;;;;;;5036833;28;20069;-63
2021/10/25 01:01:40;;;;;;;19.58;10.38;;;7.20;99.90;;;;;;5038567;28;20021;-64
2021/10/25 01:04:09;;;;;;;22.33;10.45;;;7.10;99.90;;;;;;5037597;28;20223;-63
2021/10/25 01:06:36;;;;;;;23.80;10.32;;;7.10;99.90;;;;;;5039394;28;20363;-63
2021/10/25 01:09:02;;;;;;;18.40;10.88;;;7.20;99.90;;;;;;5038089;28;20029;-63
2021/10/25 01:11:28;;;;;;;20.65;9.38;;;7.20;99.90;;;;;;5037470;28;20043;-63
2021/10/25 01:13:54;;;;;;;16.30;9.70;;;7.20;99.90;;;;;;5037322;28;20033;-64
2021/10/25 01:16:20;;;;;;;19.17;10.65;;;7.20;99.90;;;;;;5038253;28;20037;-64
2021/10/25 01:18:47;;;;;;;20.60;9.35;;;7.20;99.90;;;;;;5038045;28;20052;-64
2021/10/25 01:21:13;;;;;;;22.88;10.85;;;7.20;99.90;;;;;;5038798;28;20370;-63
2021/10/25 01:23:39;;;;;;;21.92;10.48;;;7.20;99.90;;;;;;5038974;28;20030;-63
2021/10/25 01:26:05;;;;;;;18.80;11.07;;;7.20;99.90;;;;;;5038825;28;20239;-64
2021/10/25 01:28:31;;;;;;;21.27;10.30;;;7.20;99.90;;;;;;5040394;28;20028;-63
2021/10/25 01:30:57;;;;;;;24.48;11.93;;;7.30;99.90;;;;;;5038610;28;20045;-63
2021/10/25 01:33:23;;;;;;;21.30;10.27;;;7.30;99.90;;;;;;5039526;28;20216;-63
2021/10/25 01:35:50;;;;;;;20.67;10.48;;;7.30;99.90;;;;;;5032062;28;20044;-63
2021/10/25 01:38:16;;;;;;;17.50;9.73;;;7.30;99.90;;;;;;5038293;28;20088;-64
2021/10/25 01:40:42;;;;;;;21.17;11.48;;;7.30;99.90;;;;;;5041585;28;20267;-63
2021/10/25 01:43:08;;;;;;;21.27;10.93;;;7.30;99.90;;;;;;5042948;28;20048;-64
2021/10/25 01:45:34;;;;;;;23.73;11.23;;;7.40;99.90;;;;;;5043166;28;20059;-61
2021/10/25 01:48:00;;;;;;;23.23;10.60;;;7.40;99.90;;;;;;5023620;28;20045;-61
2021/10/25 01:50:25;;;;;;;14.60;10.05;;;7.40;99.90;;;;;;5037015;28;20025;-62
2021/10/25 01:52:52;;;;;;;25.15;11.70;;;7.50;99.90;;;;;;5041218;28;20098;-61
2021/10/25 01:55:19;;;;;;;21.58;9.93;;;7.50;99.90;;;;;;5039327;28;20029;-61
2021/10/25 01:57:45;;;;;;;21.35;10.82;;;7.50;99.90;;;;;;5042754;28;20283;-61
2021/10/25 02:00:11;;;;;;;22.33;11.20;;;7.60;99.90;;;;;;5041512;28;20040;-61
2021/10/25 02:02:36;;;;;;;19.10;10.40;;;7.60;99.90;;;;;;5038468;28;20022;-61
2021/10/25 02:05:03;;;;;;;23.05;11.15;;;7.60;99.90;;;;;;5040813;28;20047;-61
2021/10/25 02:07:29;;;;;;;25.17;11.35;;;7.70;99.90;;;;;;5023343;28;20251;-61
2021/10/25 02:09:56;;;;;;;23.40;10.73;;;7.70;99.90;;;;;;5036701;28;20099;-61
2021/10/25 02:12:22;;;;;;;23.65;10.65;;;7.70;99.90;;;;;;5040846;28;20037;-61
2021/10/25 02:14:50;;;;;;;19.40;10.00;;;7.80;99.90;;;;;;5040423;28;20021;-61
2021/10/25 02:17:15;;;;;;;20.90;10.55;;;7.80;99.90;;;;;;5043043;28;20193;-61
2021/10/25 02:19:41;;;;;;;24.45;10.93;;;7.90;99.90;;;;;;5039336;28;20055;-61
2021/10/25 02:22:08;;;;;;;16.80;9.82;;;7.90;99.90;;;;;;5039378;28;20362;-61
2021/10/25 02:24:35;;;;;;;25.45;10.88;;;7.90;99.90;;;;;;5041274;28;20488;-61
2021/10/25 02:27:03;;;;;;;22.42;11.27;;;7.90;99.90;;;;;;5042203;28;20053;-61
2021/10/25 02:29:35;;;;;;;17.95;9.85;;;8.00;99.90;;;;;;5042383;28;20039;-61
2021/10/25 02:32:02;;;;;;;15.73;9.82;;;8.00;99.90;;;;;;5041989;28;20356;-61
2021/10/25 02:34:33;;;;;;;19.50;11.20;;;8.00;99.90;;;;;;5042068;28;20075;-61
2021/10/25 02:37:00;;;;;;;25.15;11.40;;;8.10;99.90;;;;;;5039816;28;20036;-61
2021/10/25 02:39:28;;;;;;;20.27;10.57;;;8.10;99.90;;;;;;5041416;28;20397;-61
2021/10/25 02:41:55;;;;;;;23.15;10.55;;;8.10;99.90;;;;;;5040909;28;20231;-61
2021/10/25 02:44:22;;;;;;;19.80;10.73;;;8.10;99.90;;;;;;5043439;28;20029;-61
2021/10/25 02:46:48;;;;;;;20.17;9.98;;;8.10;99.90;;;;;;5042924;28;20028;-61
2021/10/25 02:49:15;;;;;;;24.10;10.95;;;8.10;99.90;;;;;;5038950;28;20235;-61
2021/10/25 02:51:41;;;;;;;18.67;10.70;;;8.20;99.90;;;;;;5038542;28;20064;-61
2021/10/25 02:54:06;;;;;;;23.67;11.35;;;8.10;99.90;;;;;;5042487;28;20239;-61
2021/10/25 02:56:32;;;;;;;24.10;10.43;;;8.00;99.90;;;;;;5038236;28;20036;-62
2021/10/25 02:58:58;;;;;;;25.70;11.27;;;8.00;99.90;;;;;;5042411;28;20032;-61
2021/10/25 03:01:24;;;;;;;24.00;11.65;;;7.90;99.90;;;;;;5038966;28;20029;-61
2021/10/25 03:03:50;;;;;;;17.45;11.15;;;8.00;99.90;;;;;;5038964;28;20055;-62
2021/10/25 03:06:16;;;;;;;20.02;11.50;;;7.90;99.90;;;;;;5041488;28;20045;-61
2021/10/25 03:08:42;;;;;;;28.20;12.50;;;7.90;99.90;;;;;;5038052;28;20036;-61
2021/10/25 03:11:08;;;;;;;18.92;11.95;;;7.90;99.90;;;;;;5037076;28;20045;-61
2021/10/25 03:13:34;;;;;;;28.33;12.02;;;7.90;99.90;;;;;;5042114;28;20112;-61
2021/10/25 03:16:00;;;;;;;18.58;11.70;;;7.80;99.90;;;;;;5039419;28;20358;-61
2021/10/25 03:18:26;;;;;;;24.13;10.85;;;7.70;99.90;;;;;;5041776;28;20033;-61
2021/10/25 03:20:52;;;;;;;24.25;10.82;;;7.70;99.90;;;;;;5041667;28;20274;-61
2021/10/25 03:23:18;;;;;;;22.70;10.95;;;7.70;99.90;;;;;;5039053;28;20241;-61
2021/10/25 03:25:44;;;;;;;20.90;11.52;;;7.60;99.90;;;;;;5041318;28;20099;-61
2021/10/25 03:28:10;;;;;;;22.17;11.52;;;7.60;99.90;;;;;;5041361;28;20033;-61
2021/10/25 03:30:36;;;;;;;22.40;11.05;;;7.60;99.90;;;;;;5037288;28;20029;-61
2021/10/25 03:33:02;;;;;;;26.17;12.48;;;7.50;99.90;;;;;;5037753;28;20044;-61
2021/10/25 03:35:29;;;;;;;21.95;11.57;;;7.60;99.90;;;;;;5039383;28;20033;-63
2021/10/25 03:37:57;;;;;;;25.98;12.73;;;7.50;99.90;;;;;;5035937;28;20036;-64
2021/10/25 03:40:24;;;;;;;22.63;12.55;;;7.50;99.90;;;;;;5028664;28;20078;-64
2021/10/25 03:42:53;;;;;;;22.33;12.20;;;7.40;99.90;;;;;;5035767;28;20335;-63
2021/10/25 03:45:34;;;;;;;28.95;14.45;;;7.40;99.90;;;;;;5035492;28;20091;-63
2021/10/25 03:48:07;;;;;;;25.08;13.07;;;7.40;99.90;;;;;;5033254;28;20030;-63
2021/10/25 03:50:35;;;;;;;24.30;13.18;;;7.30;99.90;;;;;;5031545;28;20600;-63
2021/10/25 03:53:08;;;;;;;29.95;13.55;;;7.30;99.90;;;;;;5035783;28;20037;-63
2021/10/25 04:04:08;;;;;;;24.60;13.98;;;7.30;99.90;;;;;;5036596;28;20032;-64
2021/10/25 04:28:16;;;;;;;29.20;16.70;;;7.70;99.90;;;;;;5032109;28;20130;-75
2021/10/25 04:30:42;;;;;;;39.10;17.30;;;7.70;99.90;;;;;;5030269;28;20262;-74
2021/10/25 04:33:08;;;;;;;31.13;18.33;;;7.70;99.90;;;;;;5027672;28;20052;-72
2021/10/25 04:35:34;;;;;;;28.45;17.58;;;7.80;99.90;;;;;;5034861;28;20037;-73
2021/10/25 04:38:00;;;;;;;28.58;16.67;;;7.80;99.90;;;;;;5036712;28;20071;-72
2021/10/25 04:40:27;;;;;;;30.40;17.25;;;7.80;99.90;;;;;;5037899;28;20032;-72
2021/10/25 04:42:53;;;;;;;34.80;17.85;;;7.90;99.90;;;;;;5034480;28;20056;-73
2021/10/25 04:45:19;;;;;;;35.50;17.48;;;7.90;99.90;;;;;;5027519;28;20070;-73
2021/10/25 04:47:52;;;;;;;33.95;18.65;;;8.00;99.90;;;;;;5032866;28;20232;-70
2021/10/25 04:50:18;;;;;;;29.88;17.85;;;8.00;99.90;;;;;;5039435;28;20065;-70
2021/10/25 04:52:44;;;;;;;29.95;17.30;;;8.00;99.90;;;;;;5038803;28;20047;-70
2021/10/25 04:55:10;;;;;;;29.85;17.85;;;8.00;99.90;;;;;;5039152;28;20029;-70
2021/10/25 04:57:36;;;;;;;30.10;16.50;;;8.00;99.90;;;;;;5038434;28;20033;-70
2021/10/25 05:00:02;;;;;;;35.65;17.60;;;8.00;99.90;;;;;;5038237;28;20052;-72
2021/10/25 05:02:28;;;;;;;41.42;18.27;;;8.00;99.90;;;;;;5035713;28;20343;-72
2021/10/25 05:04:55;;;;;;;33.22;17.13;;;8.00;99.90;;;;;;5041047;28;20026;-72
2021/10/25 05:07:21;;;;;;;28.05;17.75;;;8.00;99.90;;;;;;5022474;28;20227;-72
2021/10/25 05:09:47;;;;;;;39.50;18.40;;;8.00;99.90;;;;;;5038287;28;20356;-72
2021/10/25 05:12:13;;;;;;;30.42;18.52;;;8.00;99.90;;;;;;5041246;28;20370;-71
2021/10/25 05:14:42;;;;;;;28.13;17.52;;;8.00;99.90;;;;;;5044336;28;20021;-72
2021/10/25 05:17:09;;;;;;;37.83;18.45;;;8.00;99.90;;;;;;5041556;28;20040;-72
2021/10/25 05:19:35;;;;;;;32.97;18.50;;;8.00;99.90;;;;;;5045684;28;20383;-72
2021/10/25 05:22:00;;;;;;;31.77;17.63;;;8.00;99.90;;;;;;5042467;28;20055;-72
2021/10/25 05:24:26;;;;;;;35.47;17.60;;;8.00;99.90;;;;;;5044300;28;20034;-71
2021/10/25 05:26:52;;;;;;;33.50;18.85;;;8.00;99.90;;;;;;5043005;28;20385;-70
2021/10/25 05:29:18;;;;;;;28.90;17.95;;;8.10;99.90;;;;;;5008876;28;20041;-70
2021/10/25 05:31:45;;;;;;;29.13;17.85;;;8.10;99.90;;;;;;5041825;28;20064;-70
2021/10/25 05:34:11;;;;;;;28.08;18.50;;;8.10;99.90;;;;;;5043468;28;20068;-70
2021/10/25 05:36:37;;;;;;;33.85;17.42;;;8.10;99.90;;;;;;5043384;28;20036;-70
2021/10/25 05:39:10;;;;;;;32.47;18.92;;;8.10;99.90;;;;;;5042369;28;20025;-69
2021/10/25 05:41:37;;;;;;;37.42;19.45;;;8.20;99.90;;;;;;5044823;28;20060;-70
2021/10/25 05:44:03;;;;;;;35.33;18.10;;;8.20;99.90;;;;;;5041564;28;20359;-70
2021/10/25 05:46:29;;;;;;;32.45;18.83;;;8.20;99.90;;;;;;5039695;28;20355;-69
2021/10/25 05:48:57;;;;;;;35.63;19.80;;;8.30;99.90;;;;;;5043216;28;20021;-70
2021/10/25 05:51:23;;;;;;;34.22;19.70;;;8.20;99.90;;;;;;5039039;28;20580;-69
2021/10/25 05:53:49;;;;;;;31.77;19.85;;;8.30;99.90;;;;;;5042645;28;20029;-69
2021/10/25 05:56:15;;;;;;;35.10;19.08;;;8.20;99.90;;;;;;5043696;28;20243;-70
2021/10/25 05:58:42;;;;;;;40.03;19.50;;;8.30;99.90;;;;;;5042078;28;20025;-70
2021/10/25 06:01:12;;;;;;;34.42;19.45;;;8.30;99.90;;;;;;5045042;28;20021;-70
2021/10/25 06:03:42;;;;;;;38.10;20.15;;;8.30;99.90;;;;;;5039566;28;20033;-70
2021/10/25 06:06:08;;;;;;;;;;;8.30;99.90;;;;;;5026096;28;20049;-70
2021/10/25 06:08:34;;;;;;;37.72;20.00;;;8.30;99.90;;;;;;5043766;28;19958;-70
2021/10/25 06:11:00;;;;;;;36.35;20.30;;;8.30;99.90;;;;;;5042530;28;20044;-70
2021/10/25 06:13:37;;;;;;;34.65;19.33;;;8.40;99.90;;;;;;5042409;28;20382;-70
2021/10/25 06:16:10;;;;;;;34.28;21.10;;;8.40;99.90;;;;;;5043875;28;20029;-71
2021/10/25 06:18:37;;;;;;;38.17;21.88;;;8.40;99.90;;;;;;5040995;28;20064;-71
2021/10/25 06:21:03;;;;;;;39.28;21.02;;;8.50;99.90;;;;;;5042917;28;20032;-70
2021/10/25 06:23:29;;;;;;;33.58;21.35;;;8.50;99.90;;;;;;5025941;28;20025;-70
2021/10/25 06:25:56;;;;;;;38.08;20.30;;;8.50;99.90;;;;;;5042393;28;20560;-70
2021/10/25 06:28:25;;;;;;;36.88;22.33;;;8.50;99.90;;;;;;5043332;28;20087;-70
2021/10/25 06:31:08;;;;;;;37.83;21.38;;;8.50;99.90;;;;;;5024157;28;20106;-72
2021/10/25 06:33:45;;;;;;;39.10;21.92;;;8.50;99.90;;;;;;5042820;28;20212;-72
2021/10/25 06:36:12;;;;;;;40.03;21.83;;;8.60;99.90;;;;;;5043055;28;20098;-72
2021/10/25 06:38:56;;;;;;;41.17;22.50;;;8.60;99.90;;;;;;5026768;28;20032;-72
2021/10/25 06:41:23;;;;;;;37.97;21.55;;;8.60;99.90;;;;;;5042366;28;20053;-72
2021/10/25 06:43:50;;;;;;;35.67;21.60;;;8.60;99.90;;;;;;5041484;28;20025;-73
2021/10/25 06:46:17;;;;;;;32.10;21.05;;;8.60;99.90;;;;;;5041814;28;20017;-71
2021/10/25 06:48:44;;;;;;;39.08;22.83;;;8.60;99.90;;;;;;5040774;28;20040;-72
2021/10/25 06:51:10;;;;;;;38.55;23.20;;;8.70;99.90;;;;;;5043963;28;20095;-72
2021/10/25 06:53:36;;;;;;;47.78;24.35;;;8.60;99.90;;;;;;5042606;28;20486;-72
2021/10/25 06:56:03;;;;;;;48.92;24.48;;;8.70;99.90;;;;;;5042817;28;20240;-72
2021/10/25 06:58:28;;;;;;;48.70;27.05;;;8.70;99.90;;;;;;5042368;28;20363;-72
2021/10/25 07:00:58;;;;;;;42.03;25.27;;;8.70;99.90;;;;;;5042399;28;20165;-72
2021/10/25 07:03:26;;;;;;;47.80;24.67;;;8.70;99.90;;;;;;5041938;28;20076;-71
2021/10/25 07:05:52;;;;;;;53.50;25.10;;;8.80;99.90;;;;;;5041145;28;20040;-70
2021/10/25 07:08:18;;;;;;;42.65;25.02;;;8.80;99.90;;;;;;5042062;28;20033;-70
2021/10/25 07:10:44;;;;;;;48.42;26.05;;;8.90;99.90;;;;;;5044097;28;20125;-71
2021/10/25 07:13:10;;;;;;;43.00;25.83;;;8.90;99.90;;;;;;5039294;28;20021;-71
2021/10/25 07:15:44;;;;;;;47.67;28.17;;;8.90;99.90;;;;;;5039675;28;20425;-70
2021/10/25 07:18:20;;;;;;;42.97;26.83;;;8.90;99.90;;;;;;5039151;28;20044;-70
2021/10/25 07:23:45;;;;;;;46.60;27.73;;;9.00;99.90;;;;;;5042747;28;20071;-70
2021/10/25 08:04:36;;;;;;;45.58;27.20;;;10.50;99.90;;;;;;5042158;28;20028;-71
2021/10/25 08:10:03;;;;;;;54.35;27.48;;;10.50;99.90;;;;;;5041926;28;20029;-71
2021/10/25 08:12:30;;;;;;;49.92;28.08;;;10.50;99.90;;;;;;5040760;28;20279;-70
2021/10/25 08:15:00;;;;;;;46.17;26.52;;;10.60;99.90;;;;;;5041682;28;20192;-70
2021/10/25 08:17:36;;;;;;;48.60;28.83;;;10.60;99.90;;;;;;5041640;28;20098;-71
2021/10/25 08:20:05;;;;;;;52.67;26.92;;;10.70;99.90;;;;;;5038874;28;20328;-71
2021/10/25 08:22:33;;;;;;;50.83;28.88;;;10.70;99.90;;;;;;5040118;28;20245;-71
2021/10/25 08:25:00;;;;;;;47.50;27.25;;;10.60;99.90;;;;;;5042384;28;20025;-71
2021/10/25 08:27:26;;;;;;;50.88;29.50;;;10.60;99.90;;;;;;5041441;28;20032;-70
2021/10/25 08:29:52;;;;;;;48.78;30.10;;;10.60;99.90;;;;;;5023004;28;20272;-71
2021/10/25 08:40:02;;;;;;;49.50;29.27;;;10.80;99.90;;;;;;5041880;28;20029;-71
2021/10/25 08:42:34;;;;;;;52.63;28.88;;;10.80;99.90;;;;;;5039932;28;20063;-70
2021/10/25 08:45:15;;;;;;;48.70;28.55;;;10.80;99.90;;;;;;5041495;28;20284;-70
2021/10/25 08:47:47;;;;;;;52.78;29.08;;;10.90;99.90;;;;;;5040584;28;20171;-71
2021/10/25 08:50:22;;;;;;;47.97;27.95;;;10.90;99.90;;;;;;5043926;28;20033;-71
2021/10/25 08:52:49;;;;;;;42.40;26.65;;;11.00;99.90;;;;;;5040399;28;20034;-71
2021/10/25 08:55:17;;;;;;;51.70;29.10;;;11.00;99.90;;;;;;5044156;28;20315;-71
2021/10/25 08:57:43;;;;;;;51.88;27.67;;;11.00;99.90;;;;;;5045520;28;20032;-71
2021/10/25 09:00:17;;;;;;;51.28;28.65;;;11.10;99.90;;;;;;5011236;28;20053;-71
2021/10/25 09:02:44;;;;;;;48.20;27.88;;;11.10;99.90;;;;;;5043375;28;20040;-71
2021/10/25 09:05:20;;;;;;;44.55;28.08;;;11.10;99.90;;;;;;5043288;28;20040;-71
2021/10/25 09:08:03;;;;;;;47.55;28.52;;;11.10;99.90;;;;;;5044764;28;20096;-71
2021/10/25 09:10:38;;;;;;;46.38;28.27;;;11.10;99.90;;;;;;5043765;28;20028;-71
2021/10/25 09:13:30;;;;;;;51.38;28.58;;;11.20;99.90;;;;;;5043915;28;20035;-71
2021/10/25 09:15:59;;;;;;;46.45;28.10;;;11.20;99.90;;;;;;5040722;28;20052;-71
2021/10/25 09:18:30;;;;;;;51.08;28.25;;;11.20;99.90;;;;;;5044627;28;20040;-71
2021/10/25 09:21:09;;;;;;;47.08;28.40;;;11.20;99.90;;;;;;5044067;28;20030;-71
2021/10/25 09:23:44;;;;;;;47.30;28.40;;;11.30;99.90;;;;;;5044665;28;20330;-71
2021/10/25 09:26:16;;;;;;;47.00;26.80;;;11.30;99.90;;;;;;5043753;28;20043;-71
2021/10/25 09:28:50;;;;;;;52.33;27.50;;;11.30;99.90;;;;;;5044514;28;20092;-71
2021/10/25 09:31:22;;;;;;;42.08;26.33;;;11.30;99.90;;;;;;5009604;28;20132;-71
2021/10/25 09:33:58;;;;;;;43.60;26.40;;;11.40;99.90;;;;;;5043446;28;20145;-71
2021/10/25 09:36:36;;;;;;;51.88;27.80;;;11.50;99.90;;;;;;5044049;28;20545;-71
2021/10/25 09:39:17;;;;;;;42.25;26.35;;;11.50;99.90;;;;;;5043263;28;20056;-70
2021/10/25 09:50:04;;;;;;;39.53;23.52;;;11.70;99.90;;;;;;5040654;28;20091;-71
2021/10/25 09:52:32;;;;;;;41.08;23.98;;;11.70;99.90;;;;;;5042281;28;20033;-71
2021/10/25 09:55:05;;;;;;;45.88;24.45;;;11.70;99.90;;;;;;5043360;28;20021;-71
2021/10/25 10:00:11;;;;;;;44.83;26.27;;;11.70;99.90;;;;;;5042874;28;20041;-71
2021/10/25 10:02:38;;;;;;;47.40;26.20;;;11.70;99.90;;;;;;5043513;28;20327;-71
2021/10/25 10:05:06;;;;;;;43.95;25.45;;;11.70;99.90;;;;;;5041242;28;20283;-71
2021/10/25 10:07:35;;;;;;;50.88;26.35;;;11.70;99.90;;;;;;5042317;28;20029;-71
2021/10/25 10:10:02;;;;;;;57.95;27.02;;;11.80;99.90;;;;;;5023875;28;20027;-71
2021/10/25 10:12:28;;;;;;;36.08;24.88;;;11.70;99.90;;;;;;5043794;28;20045;-71
2021/10/25 10:14:59;;;;;;;47.55;24.92;;;11.70;99.90;;;;;;5042857;28;20025;-72
2021/10/25 10:17:46;;;;;;;48.88;26.30;;;11.80;99.90;;;;;;5025387;28;20055;-72
2021/10/25 10:20:21;;;;;;;42.53;25.38;;;11.70;99.90;;;;;;5044549;28;20041;-71
2021/10/25 10:22:53;;;;;;;42.63;23.80;;;11.70;99.90;;;;;;5042795;28;20029;-71
2021/10/25 10:25:31;;;;;;;47.50;24.63;;;11.80;99.90;;;;;;5041784;28;20037;-71
2021/10/25 10:28:07;;;;;;;45.95;25.25;;;11.80;99.90;;;;;;5041538;28;20029;-71
2021/10/25 10:30:52;;;;;;;49.50;24.65;;;11.80;99.90;;;;;;5043106;28;20040;-71
2021/10/25 10:33:51;;;;;;;56.70;27.58;;;11.80;99.90;;;;;;5042693;28;20383;-71
2021/10/25 10:36:34;;;;;;;48.53;28.77;;;11.80;99.90;;;;;;5044092;28;20052;-73
2021/10/25 10:39:05;;;;;;;63.42;29.35;;;11.80;99.90;;;;;;5025062;28;20494;-71
2021/10/25 10:41:46;;;;;;;51.53;28.92;;;11.70;99.90;;;;;;5039274;28;20052;-71
2021/10/25 10:44:14;;;;;;;57.75;29.45;;;11.80;99.90;;;;;;5039440;28;20068;-71
2021/10/25 10:46:54;;;;;;;57.22;28.75;;;11.80;99.90;;;;;;5043182;28;20239;-72
2021/10/25 10:49:34;;;;;;;52.17;28.95;;;11.80;99.90;;;;;;5039669;28;20447;-71
2021/10/25 10:55:17;;;;;;;56.05;29.52;;;11.70;99.90;;;;;;5041607;28;20064;-71
2021/10/25 11:00:27;;;;;;;68.28;31.92;;;11.70;99.90;;;;;;5041036;28;20018;-71
2021/10/25 11:03:24;;;;;;;53.85;32.58;;;11.70;99.90;;;;;;5043085;28;20040;-71
2021/10/25 11:06:26;;;;;;;61.08;32.47;;;11.70;99.90;;;;;;5029129;28;20037;-72
2021/10/25 11:08:55;;;;;;;50.47;28.70;;;11.60;99.90;;;;;;5039611;28;20409;-71
2021/10/25 11:11:22;;;;;;;63.72;32.47;;;11.70;99.90;;;;;;5041185;28;20043;-72
2021/10/25 11:14:03;;;;;;;58.22;31.13;;;11.60;99.90;;;;;;5042006;28;20032;-71
2021/10/25 11:16:54;;;;;;;60.00;31.90;;;11.70;99.90;;;;;;5043254;28;20025;-71
2021/10/25 11:19:20;;;;;;;60.78;31.17;;;11.60;99.90;;;;;;5041802;28;20061;-71
2021/10/25 11:21:53;;;;;;;53.15;31.75;;;11.60;99.90;;;;;;5040950;28;20075;-71
2021/10/25 11:24:20;;;;;;;65.80;31.02;;;11.70;99.90;;;;;;5042047;28;20028;-71
2021/10/25 11:26:47;;;;;;;52.40;32.13;;;11.70;99.90;;;;;;5040891;28;20029;-71
2021/10/25 11:29:27;;;;;;;64.13;35.90;;;11.60;99.90;;;;;;5040365;28;20020;-71
2021/10/25 11:32:03;;;;;;;71.32;33.42;;;11.60;99.90;;;;;;5042992;28;20029;-71
2021/10/25 11:34:39;;;;;;;66.50;31.88;;;11.70;99.90;;;;;;5041753;28;20283;-71
2021/10/25 11:37:12;;;;;;;67.07;31.42;;;11.70;99.90;;;;;;5042635;28;20359;-71
2021/10/25 11:40:07;;;;;;;62.95;32.67;;;11.80;99.90;;;;;;5040323;28;20048;-71
2021/10/25 11:42:35;;;;;;;63.85;29.42;;;11.90;99.90;;;;;;5040947;28;20066;-71
2021/10/25 11:45:12;;;;;;;73.80;30.60;;;12.00;99.90;;;;;;5041647;28;20327;-71
2021/10/25 11:47:46;;;;;;;64.40;32.10;;;12.00;99.90;;;;;;5041514;28;20032;-72
2021/10/25 11:50:14;;;;;;;53.50;29.27;;;12.10;99.90;;;;;;5041852;28;20037;-72
2021/10/25 11:52:48;;;;;;;57.95;28.38;;;12.20;99.90;;;;;;5041712;28;20037;-72
2021/10/25 11:55:23;;;;;;;49.30;28.05;;;12.20;99.90;;;;;;5041561;28;20033;-72
2021/10/25 11:57:51;;;;;;;50.55;27.25;;;12.20;99.90;;;;;;5040505;28;20021;-71
2021/10/25 12:00:22;;;;;;;55.92;28.90;;;12.10;99.90;;;;;;5040608;28;20025;-72
2021/10/25 12:02:48;;;;;;;47.92;25.77;;;12.20;99.90;;;;;;5041533;28;20096;-72
2021/10/25 12:05:25;;;;;;;46.75;25.27;;;12.30;99.90;;;;;;5042411;28;20029;-71
2021/10/25 12:07:54;;;;;;;44.80;25.75;;;12.30;99.90;;;;;;5040992;28;20219;-71
2021/10/25 12:10:23;;;;;;;51.65;26.85;;;12.40;99.90;;;;;;5039967;28;20366;-70
2021/10/25 12:12:59;;;;;;;46.75;26.35;;;12.40;99.90;;;;;;5041297;28;20032;-72
2021/10/25 12:15:26;;;;;;;45.00;26.05;;;12.50;99.90;;;;;;5041565;28;20029;-72
2021/10/25 12:18:00;;;;;;;54.95;25.58;;;12.50;99.90;;;;;;5041433;28;20294;-71
2021/10/25 12:20:32;;;;;;;48.30;25.52;;;12.50;99.90;;;;;;5041345;28;20031;-71
2021/10/25 12:23:25;;;;;;;50.58;26.98;;;12.50;99.90;;;;;;5040730;28;20033;-71
2021/10/25 12:25:56;;;;;;;44.30;23.92;;;12.50;99.90;;;;;;5036507;28;20033;-71
2021/10/25 12:28:23;;;;;;;48.63;23.92;;;12.60;99.90;;;;;;5039009;28;20032;-71
2021/10/25 12:31:03;;;;;;;40.40;22.70;;;12.60;99.90;;;;;;5040233;28;20056;-72
2021/10/25 12:33:28;;;;;;;38.95;21.60;;;12.60;99.90;;;;;;5040751;28;20065;-72
2021/10/25 12:35:54;;;;;;;41.13;22.13;;;12.60;99.90;;;;;;5021880;28;20034;-72
2021/10/25 12:38:22;;;;;;;47.10;21.90;;;12.60;99.90;;;;;;5041748;28;20028;-71
2021/10/25 12:40:52;;;;;;;38.45;21.95;;;12.50;99.90;;;;;;5041174;28;20039;-71
2021/10/25 12:43:20;;;;;;;33.08;20.48;;;12.50;99.90;;;;;;5036706;28;20025;-72
2021/10/25 12:46:06;;;;;;;39.35;20.65;;;12.50;99.90;;;;;;5039933;28;20434;-72
2021/10/25 12:48:48;;;;;;;31.77;19.25;;;12.60;99.90;;;;;;5039485;28;20025;-73
2021/10/25 12:51:14;;;;;;;34.58;18.80;;;12.80;99.90;;;;;;5040857;28;20343;-71
2021/10/25 12:53:45;;;;;;;38.33;20.10;;;12.80;99.90;;;;;;5038104;28;20029;-71
2021/10/25 12:56:12;;;;;;;38.45;20.02;;;12.80;99.90;;;;;;5039920;28;20298;-72
2021/10/25 12:58:39;;;;;;;34.25;20.30;;;12.70;99.90;;;;;;5037948;28;20029;-71
2021/10/25 13:01:14;;;;;;;32.70;20.42;;;12.60;99.90;;;;;;5038841;28;20048;-72
2021/10/25 13:03:48;;;;;;;41.58;22.13;;;12.60;99.90;;;;;;5040870;28;20037;-71
2021/10/25 13:06:13;;;;;;;48.50;23.27;;;12.60;99.90;;;;;;5039638;28;20071;-72
2021/10/25 13:08:39;;;;;;;44.95;23.27;;;12.60;99.90;;;;;;5038968;28;20033;-72
2021/10/25 13:11:09;;;;;;;42.53;22.90;;;12.60;99.90;;;;;;5040649;28;20571;-71
2021/10/25 13:13:35;;;;;;;43.67;21.60;;;12.60;99.90;;;;;;5038973;28;20028;-72
2021/10/25 13:16:05;;;;;;;39.58;22.38;;;12.50;99.90;;;;;;5041253;28;20029;-72
2021/10/25 13:18:31;;;;;;;42.13;22.05;;;12.50;99.90;;;;;;5040627;28;20058;-72
2021/10/25 13:20:58;;;;;;;43.45;23.02;;;12.50;99.90;;;;;;5006781;28;20021;-72
2021/10/25 13:23:24;;;;;;;48.67;25.13;;;12.40;99.90;;;;;;5039803;28;20159;-73
2021/10/25 13:25:50;;;;;;;46.30;22.73;;;12.40;99.90;;;;;;5020988;28;20035;-71
2021/10/25 13:28:17;;;;;;;45.08;22.52;;;12.30;99.90;;;;;;5040395;28;20032;-72
2021/10/25 13:30:43;;;;;;;37.17;24.05;;;12.40;99.90;;;;;;5006858;28;20033;-72
2021/10/25 13:33:09;;;;;;;38.88;23.05;;;12.40;99.90;;;;;;5039048;28;20129;-72
2021/10/25 13:35:35;;;;;;;40.05;23.48;;;12.30;99.90;;;;;;5041528;28;20211;-71
2021/10/25 13:38:01;;;;;;;46.80;23.63;;;12.40;99.90;;;;;;5041835;28;20578;-73
2021/10/25 13:40:30;;;;;;;46.50;22.90;;;12.30;99.90;;;;;;5044143;28;20028;-72
2021/10/25 13:42:58;;;;;;;43.80;23.88;;;12.40;99.90;;;;;;5044058;28;20798;-72
2021/10/25 13:45:25;;;;;;;41.13;22.17;;;12.40;99.90;;;;;;5043833;28;20037;-72
2021/10/25 13:47:51;;;;;;;38.33;21.95;;;12.50;99.90;;;;;;5043832;28;20424;-72
2021/10/25 13:50:18;;;;;;;49.65;22.50;;;12.50;99.90;;;;;;5010274;28;20029;-71
2021/10/25 13:52:44;;;;;;;38.80;21.40;;;12.50;99.90;;;;;;5040931;28;20256;-72
2021/10/25 13:55:10;;;;;;;38.10;20.73;;;12.50;99.90;;;;;;5043079;28;20204;-72
2021/10/25 13:57:38;;;;;;;42.22;23.20;;;12.60;99.90;;;;;;5044443;28;20040;-72
2021/10/25 14:00:08;;;;;;;44.80;21.90;;;12.50;99.90;;;;;;5043553;28;20037;-71
2021/10/25 14:02:33;;;;;;;46.83;22.85;;;12.50;99.90;;;;;;5042516;28;20029;-72
2021/10/25 14:04:59;;;;;;;45.95;23.30;;;12.50;99.90;;;;;;5041381;28;20144;-72
2021/10/25 14:07:31;;;;;;;42.97;22.17;;;12.50;99.90;;;;;;5042266;28;20033;-73
2021/10/25 14:10:13;;;;;;;45.58;21.88;;;12.50;99.90;;;;;;5043086;28;20021;-72
2021/10/25 14:12:40;;;;;;;43.95;21.58;;;12.60;99.90;;;;;;5044211;28;20026;-73
2021/10/25 14:17:49;;;;;;;46.83;22.05;;;12.60;99.90;;;;;;5042594;28;20047;-72
2021/10/25 14:20:16;;;;;;;40.72;20.30;;;12.60;99.90;;;;;;5044594;28;20063;-72
2021/10/25 14:22:42;;;;;;;40.75;21.58;;;12.60;99.90;;;;;;5044115;28;20063;-72
2021/10/25 14:25:10;;;;;;;44.03;21.58;;;12.60;99.90;;;;;;5041893;28;20131;-71